createdAt,value
2017-06-21T00:00:12.833Z,50.13
2017-06-21T00:01:28.770Z,50.32
2017-06-21T00:02:44.249Z,50.13
2017-06-21T00:04:30.532Z,49.74
2017-06-21T00:05:46.251Z,50.2
2017-06-21T00:07:01.800Z,50.1
2017-06-21T00:08:17.108Z,50.2
2017-06-21T00:09:32.665Z,50.3
2017-06-21T00:10:48.390Z,50.49
2017-06-21T00:12:03.878Z,50.87
2017-06-21T00:13:19.341Z,50.49
2017-06-21T00:14:31.998Z,50.78
2017-06-21T00:15:47.702Z,51.17
2017-06-21T00:17:03.182Z,50.66
2017-06-21T00:18:18.613Z,51.23
2017-06-21T00:19:34.442Z,51.23
2017-06-21T00:20:50.124Z,51.53
2017-06-21T00:22:05.567Z,51.23
2017-06-21T00:23:19.614Z,51.62
2017-06-21T00:24:35.103Z,51.62
2017-06-21T00:25:49.271Z,51.53
2017-06-21T00:27:04.995Z,51.53
2017-06-21T00:28:19.136Z,51.53
2017-06-21T00:29:34.611Z,52.1
2017-06-21T00:30:50.108Z,52.2
2017-06-21T00:32:04.565Z,51.91
2017-06-21T00:33:20.016Z,51.72
2017-06-21T00:34:34.040Z,52.2
2017-06-21T00:35:49.453Z,52.29
2017-06-21T00:37:05.173Z,52.2
2017-06-21T00:38:20.652Z,52.39
2017-06-21T00:39:36.122Z,52.29
2017-06-21T00:40:51.557Z,52.39
2017-06-21T00:42:06.014Z,52.55
2017-06-21T00:43:21.688Z,52.46
2017-06-21T00:44:37.177Z,52.46
2017-06-21T00:45:52.659Z,52.46
2017-06-21T00:47:08.385Z,52.46
2017-06-21T00:48:24.058Z,52.65
2017-06-21T00:49:39.527Z,52.55
2017-06-21T00:50:55.106Z,52.65
2017-06-21T00:52:10.958Z,52.46
2017-06-21T00:53:26.389Z,52.94
2017-06-21T00:54:41.806Z,52.84
2017-06-21T00:55:57.296Z,53.23
2017-06-21T00:57:13.000Z,53.13
2017-06-21T00:58:28.096Z,52.84
2017-06-21T00:59:43.569Z,52.94
2017-06-21T01:00:58.994Z,52.84
2017-06-21T01:02:15.039Z,52.94
2017-06-21T01:03:30.511Z,53.32
2017-06-21T01:04:45.970Z,53.2
2017-06-21T01:05:59.983Z,53.49
2017-06-21T01:07:15.724Z,53.61
2017-06-21T01:08:31.196Z,53.68
2017-06-21T01:09:46.646Z,53.39
2017-06-21T01:11:02.122Z,53.3
2017-06-21T01:12:18.228Z,53.68
2017-06-21T01:13:33.706Z,54.06
2017-06-21T01:14:49.144Z,53.97
2017-06-21T01:16:04.694Z,53.97
2017-06-21T01:17:18.994Z,53.97
2017-06-21T01:18:34.454Z,54.16
2017-06-21T01:19:50.121Z,54.16
2017-06-21T01:21:05.603Z,54.45
2017-06-21T01:22:21.383Z,54.55
2017-06-21T01:23:36.990Z,54.55
2017-06-21T01:24:52.449Z,54.55
2017-06-21T01:26:06.644Z,54.64
2017-06-21T01:27:22.469Z,54.55
2017-06-21T01:28:37.936Z,54.74
2017-06-21T01:29:53.411Z,54.83
2017-06-21T01:31:09.258Z,54.45
2017-06-21T01:32:24.970Z,55
2017-06-21T01:33:40.415Z,54.71
2017-06-21T01:34:55.899Z,54.42
2017-06-21T01:36:11.398Z,54.71
2017-06-21T01:37:27.148Z,54.9
2017-06-21T01:38:42.579Z,55.19
2017-06-21T01:39:58.238Z,55.12
2017-06-21T01:41:13.768Z,55
2017-06-21T01:42:29.506Z,55.19
2017-06-21T01:43:44.930Z,55.47
2017-06-21T01:45:00.406Z,55
2017-06-21T01:46:14.542Z,55.19
2017-06-21T01:47:30.642Z,55.41
2017-06-21T01:48:46.133Z,55.38
2017-06-21T01:50:01.550Z,55.47
2017-06-21T01:51:17.338Z,55.57
2017-06-21T01:52:33.030Z,55.47
2017-06-21T01:53:48.119Z,55.77
2017-06-21T01:55:03.784Z,55.67
2017-06-21T01:56:18.874Z,55.77
2017-06-21T01:57:34.596Z,56.15
2017-06-21T01:58:50.065Z,56.15
2017-06-21T02:00:04.054Z,56.24
2017-06-21T02:01:19.545Z,56.34
2017-06-21T02:02:35.308Z,56.53
2017-06-21T02:03:49.584Z,56.63
2017-06-21T02:05:03.742Z,56.6
2017-06-21T02:06:19.445Z,56.82
2017-06-21T02:07:33.706Z,56.63
2017-06-21T02:08:48.933Z,56.73
2017-06-21T02:10:04.381Z,56.53
2017-06-21T02:11:19.806Z,56.63
2017-06-21T02:12:35.523Z,56.44
2017-06-21T02:13:51.008Z,56.44
2017-06-21T02:15:06.480Z,56.41
2017-06-21T02:16:21.914Z,57.11
2017-06-21T02:17:37.933Z,56.98
2017-06-21T02:18:53.499Z,56.89
2017-06-21T02:20:08.972Z,56.98
2017-06-21T02:21:23.096Z,56.82
2017-06-21T02:22:38.820Z,56.89
2017-06-21T02:23:52.637Z,56.89
2017-06-21T02:25:06.793Z,56.98
2017-06-21T02:26:22.196Z,57.28
2017-06-21T02:27:36.782Z,57.28
2017-06-21T02:28:52.215Z,57.37
2017-06-21T02:30:06.418Z,57.37
2017-06-21T02:31:20.199Z,57.46
2017-06-21T02:32:34.627Z,58.04
2017-06-21T02:33:50.275Z,58.14
2017-06-21T02:35:05.736Z,57.95
2017-06-21T02:36:21.190Z,58.04
2017-06-21T02:37:36.901Z,57.95
2017-06-21T02:38:50.951Z,57.95
2017-06-21T02:40:06.398Z,58.23
2017-06-21T02:41:21.816Z,58.23
2017-06-21T02:42:37.196Z,58.23
2017-06-21T02:43:52.620Z,58.23
2017-06-21T02:45:08.079Z,58.42
2017-06-21T02:46:22.247Z,58.33
2017-06-21T02:47:38.199Z,58.71
2017-06-21T02:48:52.331Z,58.71
2017-06-21T02:50:07.769Z,58.23
2017-06-21T02:51:20.629Z,58.42
2017-06-21T02:52:36.105Z,58.42
2017-06-21T02:53:51.925Z,58.62
2017-06-21T02:55:07.105Z,58.62
2017-06-21T02:56:22.583Z,58.52
2017-06-21T02:57:38.056Z,58.52
2017-06-21T02:58:53.801Z,58.52
2017-06-21T03:00:09.440Z,58.49
2017-06-21T03:01:24.931Z,58.97
2017-06-21T03:02:40.480Z,59.09
2017-06-21T03:03:56.167Z,58.97
2017-06-21T03:05:11.646Z,59.06
2017-06-21T03:06:27.232Z,59.36
2017-06-21T03:07:42.700Z,59.45
2017-06-21T03:08:58.378Z,59.93
2017-06-21T03:10:13.991Z,59.74
2017-06-21T03:11:29.436Z,59.45
2017-06-21T03:12:45.028Z,59.83
2017-06-21T03:14:00.738Z,60.12
2017-06-21T03:15:16.367Z,60.12
2017-06-21T03:16:31.867Z,59.93
2017-06-21T03:17:47.277Z,60.03
2017-06-21T03:19:03.007Z,60.03
2017-06-21T03:20:18.448Z,59.83
2017-06-21T03:21:33.815Z,60.12
2017-06-21T03:22:47.961Z,59.83
2017-06-21T03:24:03.694Z,60.03
2017-06-21T03:25:19.160Z,60.22
2017-06-21T03:26:34.621Z,60.03
2017-06-21T03:27:50.075Z,60.03
2017-06-21T03:29:04.661Z,60.03
2017-06-21T03:30:20.104Z,60.12
2017-06-21T03:31:35.617Z,60.5
2017-06-21T03:32:51.108Z,60.5
2017-06-21T03:34:06.982Z,60.41
2017-06-21T03:35:22.488Z,60.41
2017-06-21T03:36:51.448Z,60.41
2017-06-21T03:38:07.142Z,60.89
2017-06-21T03:39:22.704Z,60.31
2017-06-21T03:40:38.151Z,60.5
2017-06-21T03:41:53.584Z,60.41
2017-06-21T03:43:09.417Z,60.41
2017-06-21T03:44:23.583Z,60.12
2017-06-21T03:45:39.135Z,60.6
2017-06-21T03:46:54.583Z,60.41
2017-06-21T03:48:10.317Z,60.57
2017-06-21T03:49:25.737Z,61.24
2017-06-21T03:50:41.168Z,60.86
2017-06-21T03:51:55.217Z,61.15
2017-06-21T03:53:10.965Z,61.05
2017-06-21T03:54:26.397Z,61.08
2017-06-21T03:55:41.882Z,61.18
2017-06-21T03:56:57.349Z,60.99
2017-06-21T03:58:12.677Z,61.05
2017-06-21T03:59:24.112Z,61.08
2017-06-21T04:00:39.579Z,60.89
2017-06-21T04:01:54.996Z,60.99
2017-06-21T04:03:10.980Z,61.08
2017-06-21T04:04:26.578Z,61.46
2017-06-21T04:05:41.677Z,61.18
2017-06-21T04:06:57.157Z,61.66
2017-06-21T04:08:12.811Z,61.43
2017-06-21T04:09:28.245Z,60.89
2017-06-21T04:10:43.385Z,61.08
2017-06-21T04:11:58.827Z,61.08
2017-06-21T04:13:14.586Z,61.18
2017-06-21T04:14:29.965Z,61.08
2017-06-21T04:15:45.732Z,61.66
2017-06-21T04:17:01.200Z,61.56
2017-06-21T04:18:16.963Z,61.34
2017-06-21T04:19:32.395Z,61.34
2017-06-21T04:20:47.880Z,61.72
2017-06-21T04:22:03.373Z,61.63
2017-06-21T04:23:19.260Z,61.63
2017-06-21T04:24:34.740Z,61.91
2017-06-21T04:25:48.778Z,61.91
2017-06-21T04:27:04.297Z,61.91
2017-06-21T04:28:20.089Z,61.63
2017-06-21T04:29:34.214Z,62.01
2017-06-21T04:30:49.708Z,61.37
2017-06-21T04:32:05.064Z,61.56
2017-06-21T04:33:21.038Z,61.75
2017-06-21T04:34:36.471Z,61.85
2017-06-21T04:35:51.909Z,61.56
2017-06-21T04:37:07.507Z,61.56
2017-06-21T04:38:23.375Z,61.75
2017-06-21T04:39:38.827Z,61.85
2017-06-21T04:40:54.299Z,61.46
2017-06-21T04:42:09.978Z,61.66
2017-06-21T04:43:25.758Z,61.37
2017-06-21T04:44:41.240Z,61.75
2017-06-21T04:45:55.354Z,61.46
2017-06-21T04:47:08.144Z,61.75
2017-06-21T04:48:23.625Z,61.66
2017-06-21T04:49:39.526Z,61.27
2017-06-21T04:50:55.088Z,61.37
2017-06-21T04:52:10.529Z,61.27
2017-06-21T04:53:25.969Z,60.89
2017-06-21T04:54:41.934Z,60.89
2017-06-21T04:55:57.426Z,61.18
2017-06-21T04:57:12.854Z,60.99
2017-06-21T04:58:28.409Z,61.46
2017-06-21T04:59:44.114Z,61.27
2017-06-21T05:00:59.563Z,61.08
2017-06-21T05:02:15.068Z,61.21
2017-06-21T05:03:30.522Z,61.3
2017-06-21T05:04:45.872Z,61.21
2017-06-21T05:06:01.344Z,60.92
2017-06-21T05:07:16.762Z,61.49
2017-06-21T05:08:32.276Z,61.11
2017-06-21T05:09:47.947Z,61.11
2017-06-21T05:11:03.773Z,61.49
2017-06-21T05:12:18.863Z,61.3
2017-06-21T05:13:34.236Z,61.78
2017-06-21T05:14:49.960Z,61.3
2017-06-21T05:16:05.383Z,61.59
2017-06-21T05:17:20.875Z,61.98
2017-06-21T05:18:36.358Z,61.78
2017-06-21T05:19:51.850Z,61.69
2017-06-21T05:21:06.235Z,61.69
2017-06-21T05:22:21.903Z,61.98
2017-06-21T05:23:37.347Z,61.69
2017-06-21T05:24:53.157Z,61.88
2017-06-21T05:26:08.617Z,61.69
2017-06-21T05:27:24.148Z,61.69
2017-06-21T05:28:39.643Z,61.69
2017-06-21T05:29:55.107Z,61.3
2017-06-21T05:31:10.518Z,61.4
2017-06-21T05:32:25.963Z,61.21
2017-06-21T05:33:41.453Z,61.3
2017-06-21T05:34:57.243Z,61.3
2017-06-21T05:36:12.665Z,61.21
2017-06-21T05:37:27.993Z,61.62
2017-06-21T05:38:43.730Z,61.62
2017-06-21T05:39:59.664Z,61.62
2017-06-21T05:41:15.128Z,61.43
2017-06-21T05:42:30.699Z,61.05
2017-06-21T05:43:46.185Z,60.85
2017-06-21T05:45:01.884Z,60.47
2017-06-21T05:46:17.423Z,60.08
2017-06-21T05:47:33.048Z,60.57
2017-06-21T05:48:48.493Z,60.38
2017-06-21T05:50:02.887Z,60.08
2017-06-21T05:51:18.349Z,60.21
2017-06-21T05:52:33.951Z,60.28
2017-06-21T05:53:49.408Z,60.5
2017-06-21T05:55:05.063Z,60.02
2017-06-21T05:56:20.705Z,59.92
2017-06-21T05:57:36.376Z,59.44
2017-06-21T05:58:51.863Z,59.54
2017-06-21T06:00:07.600Z,59.92
2017-06-21T06:01:23.044Z,59.44
2017-06-21T06:02:38.496Z,59.92
2017-06-21T06:03:53.916Z,60.11
2017-06-21T06:05:09.749Z,59.44
2017-06-21T06:06:25.666Z,59.92
2017-06-21T06:07:41.157Z,59.64
2017-06-21T06:08:56.639Z,59.64
2017-06-21T06:10:12.328Z,59.44
2017-06-21T06:11:27.798Z,59.54
2017-06-21T06:12:43.230Z,59.54
2017-06-21T06:13:57.443Z,59.34
2017-06-21T06:15:11.870Z,59.47
2017-06-21T06:16:27.414Z,59.19
2017-06-21T06:17:43.143Z,59.28
2017-06-21T06:18:58.606Z,59.47
2017-06-21T06:20:14.355Z,59.66
2017-06-21T06:21:29.837Z,59.28
2017-06-21T06:22:45.265Z,59.47
2017-06-21T06:23:59.420Z,59.19
2017-06-21T06:25:15.157Z,59.19
2017-06-21T06:26:30.846Z,59.38
2017-06-21T06:27:46.524Z,59.19
2017-06-21T06:29:01.973Z,59.19
2017-06-21T06:30:16.356Z,59.19
2017-06-21T06:31:31.796Z,59.09
2017-06-21T06:32:47.301Z,58.89
2017-06-21T06:34:02.767Z,58.32
2017-06-21T06:35:18.465Z,58.7
2017-06-21T06:36:34.084Z,58.89
2017-06-21T06:37:48.092Z,59.19
2017-06-21T06:39:03.557Z,58.99
2017-06-21T06:40:19.258Z,59.09
2017-06-21T06:41:33.434Z,59.09
2017-06-21T06:42:49.106Z,58.7
2017-06-21T06:44:04.533Z,58.8
2017-06-21T06:45:18.947Z,58.61
2017-06-21T06:46:34.039Z,58.73
2017-06-21T06:47:49.651Z,58.64
2017-06-21T06:49:05.096Z,58.45
2017-06-21T06:50:18.215Z,58.15
2017-06-21T06:51:33.688Z,58.25
2017-06-21T06:52:49.375Z,58.06
2017-06-21T06:54:03.425Z,57.97
2017-06-21T06:55:19.110Z,57.87
2017-06-21T06:56:34.792Z,57.87
2017-06-21T06:57:50.234Z,57.48
2017-06-21T06:59:05.676Z,57.48
2017-06-21T07:00:21.411Z,57.39
2017-06-21T07:01:36.864Z,57.58
2017-06-21T07:02:52.325Z,57.39
2017-06-21T07:04:08.070Z,56.81
2017-06-21T07:05:23.800Z,56.84
2017-06-21T07:06:39.283Z,56.26
2017-06-21T07:07:54.780Z,56.26
2017-06-21T07:09:10.216Z,56.36
2017-06-21T07:10:25.906Z,56.52
2017-06-21T07:11:40.050Z,56.16
2017-06-21T07:12:55.641Z,56.26
2017-06-21T07:14:11.084Z,56.26
2017-06-21T07:15:25.347Z,56.16
2017-06-21T07:16:39.518Z,56.26
2017-06-21T07:17:54.983Z,56.16
2017-06-21T07:19:09.041Z,56.26
2017-06-21T07:20:24.938Z,55.4
2017-06-21T07:21:40.594Z,55.3
2017-06-21T07:22:56.063Z,55.68
2017-06-21T07:24:11.504Z,55.4
2017-06-21T07:25:27.262Z,55.3
2017-06-21T07:26:41.394Z,55.2
2017-06-21T07:27:55.572Z,55.2
2017-06-21T07:29:11.041Z,55.49
2017-06-21T07:30:25.457Z,54.82
2017-06-21T07:31:40.972Z,55.4
2017-06-21T07:32:56.111Z,55.11
2017-06-21T07:34:10.050Z,55.01
2017-06-21T07:35:24.082Z,55.11
2017-06-21T07:36:39.879Z,55.11
2017-06-21T07:37:55.332Z,55.2
2017-06-21T07:39:10.779Z,54.85
2017-06-21T07:40:26.278Z,54.75
2017-06-21T07:41:42.155Z,54.36
2017-06-21T07:42:57.830Z,54.65
2017-06-21T07:44:13.319Z,54.85
2017-06-21T07:45:27.447Z,54.46
2017-06-21T07:46:43.207Z,54.65
2017-06-21T07:47:58.628Z,54.65
2017-06-21T07:49:14.091Z,54.65
2017-06-21T07:50:29.503Z,54.65
2017-06-21T07:51:45.230Z,54.94
2017-06-21T07:53:00.693Z,54.56
2017-06-21T07:54:16.172Z,54.75
2017-06-21T07:55:31.655Z,54.17
2017-06-21T07:56:47.382Z,54.56
2017-06-21T07:58:02.839Z,54.36
2017-06-21T07:59:18.355Z,54.65
2017-06-21T08:00:33.805Z,54.49
2017-06-21T08:01:48.180Z,54.2
2017-06-21T08:03:02.219Z,53.62
2017-06-21T08:04:17.703Z,53.43
2017-06-21T08:05:33.198Z,53.53
2017-06-21T08:06:48.874Z,53.62
2017-06-21T08:08:04.353Z,53.43
2017-06-21T08:09:19.845Z,53.43
2017-06-21T08:10:35.314Z,54.1
2017-06-21T08:11:51.035Z,53.31
2017-06-21T08:13:06.507Z,54.2
2017-06-21T08:14:22.018Z,53.62
2017-06-21T08:15:37.389Z,54.27
2017-06-21T08:16:53.189Z,54.2
2017-06-21T08:18:08.645Z,54.1
2017-06-21T08:19:22.655Z,54.36
2017-06-21T08:20:36.650Z,53.62
2017-06-21T08:21:52.611Z,53.5
2017-06-21T08:23:08.150Z,53.72
2017-06-21T08:24:23.740Z,53.43
2017-06-21T08:25:39.135Z,53.33
2017-06-21T08:26:53.525Z,53.33
2017-06-21T08:28:08.990Z,52.87
2017-06-21T08:29:24.480Z,52.4
2017-06-21T08:30:59.421Z,52.01
2017-06-21T08:32:14.891Z,51.46
2017-06-21T08:33:29.146Z,50.21
2017-06-21T08:34:44.639Z,50.69
2017-06-21T08:35:58.841Z,50.11
2017-06-21T08:37:13.228Z,50.01
2017-06-21T08:38:28.696Z,49.82
2017-06-21T08:39:44.115Z,50.21
2017-06-21T08:40:59.635Z,49.84
2017-06-21T08:42:15.347Z,49.17
2017-06-21T08:43:29.492Z,49.07
2017-06-21T08:44:43.809Z,48.4
2017-06-21T08:45:59.298Z,48.61
2017-06-21T08:47:15.028Z,48.61
2017-06-21T08:48:29.154Z,48.81
2017-06-21T08:49:42.910Z,47.27
2017-06-21T08:50:57.276Z,46.42
2017-06-21T08:52:13.803Z,45.75
2017-06-21T08:53:29.249Z,46.51
2017-06-21T08:54:44.909Z,46.13
2017-06-21T08:56:00.384Z,45.86
2017-06-21T08:57:16.211Z,45.57
2017-06-21T08:58:31.726Z,45.5
2017-06-21T08:59:47.210Z,44.46
2017-06-21T09:01:02.657Z,43.32
2017-06-21T09:02:18.362Z,42.2
2017-06-21T09:03:32.530Z,40.38
2017-06-21T09:04:47.814Z,39.45
2017-06-21T09:06:03.029Z,37.45
2017-06-21T09:07:18.722Z,37.49
2017-06-21T09:08:34.573Z,35.57
2017-06-21T09:09:50.047Z,32.96
2017-06-21T09:11:05.358Z,31.41
2017-06-21T09:12:21.078Z,30.74
2017-06-21T09:13:36.566Z,32.5
2017-06-21T09:14:52.217Z,32.79
2017-06-21T09:16:07.696Z,31.64
2017-06-21T09:17:23.067Z,31.19
2017-06-21T09:19:09.214Z,30.22
2017-06-21T09:20:57.026Z,27.22
2017-06-21T09:22:37.291Z,26.95
2017-06-21T09:23:52.792Z,26.76
2017-06-21T09:25:08.286Z,28.4
2017-06-21T09:26:22.610Z,28.11
2017-06-21T09:27:38.343Z,27.73
2017-06-21T09:28:52.514Z,26.38
2017-06-21T09:30:08.204Z,27.06
2017-06-21T09:31:23.695Z,27.54
2017-06-21T09:32:39.603Z,27.15
2017-06-21T09:33:55.118Z,26.95
2017-06-21T09:35:10.733Z,27.64
2017-06-21T09:36:24.872Z,26.86
2017-06-21T09:37:40.641Z,26.38
2017-06-21T09:38:56.094Z,26.1
2017-06-21T09:40:11.823Z,24.24
2017-06-21T09:41:27.345Z,23.65
2017-06-21T09:42:43.139Z,24.03
2017-06-21T09:43:58.607Z,24.71
2017-06-21T09:45:14.368Z,25.21
2017-06-21T09:46:29.899Z,24.73
2017-06-21T09:47:45.579Z,24.82
2017-06-21T09:49:01.180Z,24.91
2017-06-21T09:50:16.734Z,25.22
2017-06-21T09:51:32.244Z,24.82
2017-06-21T09:52:47.978Z,24.84
2017-06-21T09:54:03.498Z,24.65
2017-06-21T09:55:18.984Z,24.66
2017-06-21T09:56:34.452Z,24.96
2017-06-21T09:57:50.201Z,24.58
2017-06-21T09:59:05.768Z,24.09
2017-06-21T10:00:21.270Z,23.9
2017-06-21T10:01:36.707Z,24.18
2017-06-21T10:02:52.537Z,23.59
2017-06-21T10:04:07.994Z,24.16
2017-06-21T10:05:22.221Z,24.65
2017-06-21T10:06:37.341Z,23.97
2017-06-21T10:07:53.063Z,22.8
2017-06-21T10:09:08.263Z,22.6
2017-06-21T10:10:23.940Z,22.88
2017-06-21T10:11:39.462Z,22.88
2017-06-21T10:12:55.268Z,22.98
2017-06-21T10:14:10.716Z,23.08
2017-06-21T10:15:26.330Z,22.99
2017-06-21T10:16:41.834Z,22.99
2017-06-21T10:17:57.610Z,22.7
2017-06-21T10:19:13.283Z,22.7
2017-06-21T10:20:28.788Z,23.38
2017-06-21T10:21:43.176Z,23.37
2017-06-21T10:22:58.937Z,23.55
2017-06-21T10:24:14.454Z,23.94
2017-06-21T10:25:30.011Z,24.14
2017-06-21T10:26:45.484Z,23.65
2017-06-21T10:28:01.269Z,23.07
2017-06-21T10:29:15.450Z,23.08
2017-06-21T10:30:30.934Z,22.59
2017-06-21T10:31:46.459Z,23.08
2017-06-21T10:33:02.185Z,22.78
2017-06-21T10:34:17.686Z,21.92
2017-06-21T10:35:33.158Z,22.21
2017-06-21T10:36:48.640Z,23.09
2017-06-21T10:38:04.620Z,23
2017-06-21T10:39:20.136Z,22.51
2017-06-21T10:40:35.661Z,22.33
2017-06-21T10:41:49.837Z,21.56
2017-06-21T10:43:05.613Z,20.87
2017-06-21T10:44:21.243Z,19.89
2017-06-21T10:45:36.772Z,19.88
2017-06-21T10:46:52.252Z,19.98
2017-06-21T10:48:07.936Z,19.59
2017-06-21T10:49:23.455Z,20.07
2017-06-21T10:50:38.930Z,20.06
2017-06-21T10:51:54.412Z,20.64
2017-06-21T10:53:10.321Z,20.73
2017-06-21T10:54:25.758Z,21.42
2017-06-21T10:55:41.247Z,21.7
2017-06-21T10:56:56.763Z,21.99
2017-06-21T10:58:12.499Z,21.71
2017-06-21T10:59:28.054Z,21.7
2017-06-21T11:00:43.575Z,21.51
2017-06-21T11:01:59.059Z,20.24
2017-06-21T11:03:14.803Z,19.85
2017-06-21T11:04:30.282Z,20.03
2017-06-21T11:05:45.818Z,19.83
2017-06-21T11:07:01.310Z,19.93
2017-06-21T11:08:16.692Z,19.53
2017-06-21T11:09:31.841Z,19.73
2017-06-21T11:10:46.998Z,19.71
2017-06-21T11:12:02.503Z,20.12
2017-06-21T11:13:18.248Z,20.69
2017-06-21T11:14:32.280Z,20.7
2017-06-21T11:15:46.479Z,20.7
2017-06-21T11:17:01.965Z,19.73
2017-06-21T11:18:17.973Z,20.23
2017-06-21T11:19:33.471Z,20.82
2017-06-21T11:20:48.964Z,20.82
2017-06-21T11:22:04.462Z,20.82
2017-06-21T11:23:20.321Z,20.53
2017-06-21T11:24:35.838Z,20.73
2017-06-21T11:25:51.371Z,20.54
2017-06-21T11:27:05.419Z,20.84
2017-06-21T11:28:21.164Z,19.86
2017-06-21T11:29:35.422Z,18.68
2017-06-21T11:30:51.079Z,19.18
2017-06-21T11:32:06.586Z,18.98
2017-06-21T11:33:22.375Z,19.17
2017-06-21T11:34:38.123Z,19.26
2017-06-21T11:35:53.630Z,19.17
2017-06-21T11:37:09.138Z,19.46
2017-06-21T11:38:24.881Z,18.97
2017-06-21T11:39:40.401Z,18.77
2017-06-21T11:40:55.904Z,18.76
2017-06-21T11:42:10.125Z,18.56
2017-06-21T11:43:25.883Z,17.29
2017-06-21T11:44:41.444Z,16.61
2017-06-21T11:45:56.936Z,15.83
2017-06-21T11:47:09.664Z,16.41
2017-06-21T11:48:25.169Z,16.89
2017-06-21T11:49:40.952Z,16.5
2017-06-21T11:50:55.119Z,17.09
2017-06-21T11:52:10.721Z,17.68
2017-06-21T11:53:26.422Z,17.19
2017-06-21T11:54:42.247Z,17.09
2017-06-21T11:55:57.745Z,17.58
2017-06-21T11:57:13.422Z,18.27
2017-06-21T11:58:29.139Z,18.46
2017-06-21T11:59:44.852Z,18.76
2017-06-21T12:01:00.104Z,17.68
2017-06-21T12:02:15.639Z,17.88
2017-06-21T12:03:31.162Z,18.26
2017-06-21T12:04:46.909Z,18.46
2017-06-21T12:06:01.179Z,17.97
2017-06-21T12:07:16.718Z,18.07
2017-06-21T12:08:32.296Z,17.88
2017-06-21T12:09:48.036Z,17.3
2017-06-21T12:11:03.754Z,16.32
2017-06-21T12:12:18.552Z,15.92
2017-06-21T12:13:34.052Z,16.12
2017-06-21T12:14:48.376Z,17.09
2017-06-21T12:16:03.886Z,17.66
2017-06-21T12:17:19.318Z,18.15
2017-06-21T12:18:33.494Z,18.25
2017-06-21T12:19:49.240Z,18.54
2017-06-21T12:21:04.733Z,18.44
2017-06-21T12:22:20.282Z,18.54
2017-06-21T12:23:35.772Z,17.86
2017-06-21T12:24:51.530Z,17.66
2017-06-21T12:26:07.180Z,18.24
2017-06-21T12:27:22.724Z,18.34
2017-06-21T12:28:51.932Z,18.33
2017-06-21T12:30:07.473Z,18.91
2017-06-21T12:31:22.847Z,19.31
2017-06-21T12:32:35.687Z,19.01
2017-06-21T12:33:51.186Z,19.21
2017-06-21T12:35:06.505Z,19
2017-06-21T12:36:22.325Z,19.68
2017-06-21T12:37:37.760Z,19.59
2017-06-21T12:38:53.276Z,19.98
2017-06-21T12:40:08.965Z,19.79
2017-06-21T12:41:24.665Z,19.68
2017-06-21T12:42:40.196Z,19.88
2017-06-21T12:43:55.709Z,19.88
2017-06-21T12:45:11.472Z,20.06
2017-06-21T12:46:26.927Z,20.45
2017-06-21T12:47:41.087Z,20.84
2017-06-21T12:48:56.533Z,21.33
2017-06-21T12:50:12.347Z,21.53
2017-06-21T12:51:28.020Z,22.11
2017-06-21T12:52:43.469Z,22.31
2017-06-21T12:53:58.928Z,22.41
2017-06-21T12:55:14.809Z,22.6
2017-06-21T12:56:30.256Z,22.78
2017-06-21T12:57:45.757Z,23.08
2017-06-21T12:59:01.191Z,23.08
2017-06-21T13:00:30.681Z,22.5
2017-06-21T13:01:46.173Z,22.02
2017-06-21T13:03:01.641Z,20.45
2017-06-21T13:04:17.383Z,20.65
2017-06-21T13:05:31.641Z,20.45
2017-06-21T13:06:47.155Z,21.51
2017-06-21T13:08:02.827Z,21.91
2017-06-21T13:09:18.196Z,22.49
2017-06-21T13:10:47.281Z,22.49
2017-06-21T13:12:02.866Z,22.69
2017-06-21T13:13:18.386Z,22.88
2017-06-21T13:14:33.779Z,22.49
2017-06-21T13:15:49.246Z,22.69
2017-06-21T13:17:04.701Z,23.17
2017-06-21T13:18:18.944Z,23.84
2017-06-21T13:19:34.701Z,23.84
2017-06-21T13:20:50.218Z,23.45
2017-06-21T13:22:05.692Z,23.25
2017-06-21T13:23:19.903Z,23.45
2017-06-21T13:24:35.750Z,23.45
2017-06-21T13:25:51.078Z,23.55
2017-06-21T13:27:06.242Z,23.65
2017-06-21T13:28:21.341Z,23.94
2017-06-21T13:29:35.748Z,23.35
2017-06-21T13:30:51.240Z,23.07
2017-06-21T13:32:20.283Z,23.55
2017-06-21T13:33:35.774Z,22.97
2017-06-21T13:34:51.561Z,22.87
2017-06-21T13:36:07.273Z,22.76
2017-06-21T13:37:22.796Z,22.96
2017-06-21T13:38:38.340Z,23.52
2017-06-21T13:39:54.094Z,23.43
2017-06-21T13:41:09.582Z,23.72
2017-06-21T13:42:25.318Z,23.82
2017-06-21T13:43:40.861Z,23.43
2017-06-21T13:44:56.619Z,23.91
2017-06-21T13:46:12.259Z,23.72
2017-06-21T13:47:27.766Z,23.62
2017-06-21T13:48:43.255Z,24.1
2017-06-21T13:49:58.992Z,23.9
2017-06-21T13:51:14.520Z,24.19
2017-06-21T13:52:28.686Z,24.19
2017-06-21T13:53:44.183Z,24.78
2017-06-21T13:54:59.836Z,24.6
2017-06-21T13:56:14.045Z,24.6
2017-06-21T13:57:29.774Z,24.6
2017-06-21T13:58:45.285Z,24.6
2017-06-21T14:00:01.036Z,24.89
2017-06-21T14:01:16.530Z,24.69
2017-06-21T14:02:32.030Z,24.79
2017-06-21T14:03:47.533Z,24.9
2017-06-21T14:05:03.294Z,24.71
2017-06-21T14:06:18.963Z,24.71
2017-06-21T14:07:34.616Z,24.9
2017-06-21T14:08:50.098Z,23.73
2017-06-21T14:10:05.829Z,23.73
2017-06-21T14:11:21.365Z,23.93
2017-06-21T14:12:36.922Z,23.43
2017-06-21T14:13:52.401Z,22.85
2017-06-21T14:15:08.262Z,23.43
2017-06-21T14:16:23.761Z,23.91
2017-06-21T14:17:39.265Z,23.33
2017-06-21T14:18:54.783Z,23.8
2017-06-21T14:20:10.613Z,24.58
2017-06-21T14:21:26.106Z,24.68
2017-06-21T14:22:41.611Z,24.88
2017-06-21T14:23:57.124Z,24.88
2017-06-21T14:25:12.894Z,25.07
2017-06-21T14:26:28.093Z,24.97
2017-06-21T14:27:42.511Z,24.58
2017-06-21T14:28:57.979Z,24.1
2017-06-21T14:30:13.967Z,24
2017-06-21T14:31:29.131Z,23.71
2017-06-21T14:32:44.726Z,23.61
2017-06-21T14:34:13.901Z,24.78
2017-06-21T14:35:29.677Z,24.68
2017-06-21T14:36:43.826Z,24.39
2017-06-21T14:37:59.274Z,25.07
2017-06-21T14:39:14.993Z,24.78
2017-06-21T14:40:30.755Z,24.78
2017-06-21T14:41:46.276Z,24.68
2017-06-21T14:43:01.768Z,24.39
2017-06-21T14:44:17.284Z,24.57
2017-06-21T14:45:33.149Z,24.29
2017-06-21T14:46:48.633Z,24.96
2017-06-21T14:48:04.180Z,24.96
2017-06-21T14:49:19.658Z,24.77
2017-06-21T14:50:35.412Z,24.67
2017-06-21T14:51:50.516Z,24.57
2017-06-21T14:53:05.960Z,24.96
2017-06-21T14:54:21.442Z,25.05
2017-06-21T14:55:37.376Z,24.77
2017-06-21T14:56:52.857Z,24.48
2017-06-21T14:58:08.356Z,24.28
2017-06-21T14:59:23.855Z,24.57
2017-06-21T15:00:39.675Z,24.67
2017-06-21T15:01:55.182Z,24.77
2017-06-21T15:03:10.640Z,24.96
2017-06-21T15:04:26.112Z,25.05
2017-06-21T15:05:41.999Z,24.77
2017-06-21T15:06:57.478Z,24.96
2017-06-21T15:08:12.936Z,24.67
2017-06-21T15:09:28.427Z,24.38
2017-06-21T15:10:44.156Z,24.96
2017-06-21T15:13:28.726Z,24.87
2017-06-21T15:15:15.013Z,24.57
2017-06-21T15:16:30.723Z,24.77
2017-06-21T15:17:46.205Z,24.87
2017-06-21T15:19:01.857Z,25.05
2017-06-21T15:20:17.508Z,24.57
2017-06-21T15:21:33.293Z,23.5
2017-06-21T15:22:48.716Z,23.7
2017-06-21T15:24:02.950Z,23.99
2017-06-21T15:25:17.133Z,23.89
2017-06-21T15:26:32.832Z,23.97
2017-06-21T15:27:47.187Z,23.79
2017-06-21T15:29:02.688Z,23.79
2017-06-21T15:30:18.184Z,22.72
2017-06-21T15:31:33.921Z,22.72
2017-06-21T15:32:49.462Z,23.41
2017-06-21T15:34:04.926Z,22.82
2017-06-21T15:35:20.030Z,23.41
2017-06-21T15:36:35.828Z,23.6
2017-06-21T15:37:50.016Z,22.72
2017-06-21T15:39:05.524Z,22.91
2017-06-21T15:40:21.053Z,22.72
2017-06-21T15:41:36.955Z,22.81
2017-06-21T15:42:52.384Z,23.68
2017-06-21T15:44:07.900Z,23.59
2017-06-21T15:45:23.378Z,23.97
2017-06-21T15:46:39.238Z,24.55
2017-06-21T15:48:08.301Z,24.56
2017-06-21T15:49:23.862Z,23.88
2017-06-21T15:50:39.363Z,23.69
2017-06-21T15:51:55.068Z,23.39
2017-06-21T15:53:09.319Z,23.88
2017-06-21T15:54:24.858Z,23
2017-06-21T15:55:40.524Z,22.52
2017-06-21T15:56:56.315Z,21.55
2017-06-21T15:58:11.800Z,21.75
2017-06-21T15:59:27.295Z,22.23
2017-06-21T16:00:42.813Z,22.52
2017-06-21T16:01:58.652Z,22.23
2017-06-21T16:03:14.127Z,23
2017-06-21T16:04:28.213Z,22.81
2017-06-21T16:05:43.722Z,22.81
2017-06-21T16:06:59.470Z,22.81
2017-06-21T16:08:14.907Z,22.81
2017-06-21T16:09:30.576Z,22.72
2017-06-21T16:11:16.791Z,22.81
2017-06-21T16:12:32.588Z,23.1
2017-06-21T16:13:48.083Z,22.81
2017-06-21T16:15:03.563Z,23.49
2017-06-21T16:16:19.085Z,23.69
2017-06-21T16:17:33.523Z,23.79
2017-06-21T16:18:49.130Z,23.88
2017-06-21T16:20:04.629Z,23.59